createdAt,value
2022-09-27T00:01:53.486Z,3.63
2022-09-27T00:04:20.346Z,3.97
2022-09-27T00:06:47.140Z,3.67
2022-09-27T00:09:13.964Z,3.58
2022-09-27T00:11:44.640Z,3.13
2022-09-27T00:14:13.331Z,2.80
2022-09-27T00:16:41.391Z,2.40
2022-09-27T00:19:15.688Z,2.70
2022-09-27T00:21:44.089Z,2.45
2022-09-27T00:24:16.195Z,2.20
2022-09-27T00:26:43.331Z,2.00
2022-09-27T00:29:10.920Z,2.15
2022-09-27T00:31:38.153Z,1.92
2022-09-27T00:34:06.990Z,1.70
2022-09-27T00:36:34.714Z,1.88
2022-09-27T00:39:02.017Z,2.03
2022-09-27T00:41:32.359Z,2.53
2022-09-27T00:44:05.434Z,2.17
2022-09-27T00:49:25.214Z,2.42
2022-09-27T00:51:58.410Z,2.40
2022-09-27T00:54:28.070Z,3.10
2022-09-27T00:56:55.474Z,2.70
2022-09-27T00:59:30.268Z,2.70
2022-09-27T01:01:57.441Z,3.13
2022-09-27T01:04:28.057Z,3.22
2022-09-27T01:06:55.066Z,2.95
2022-09-27T01:09:22.788Z,3.35
2022-09-27T01:12:20.681Z,2.63
2022-09-27T01:15:06.204Z,1.73
2022-09-27T01:17:52.582Z,1.70
2022-09-27T01:20:25.434Z,1.23
2022-09-27T01:23:04.390Z,1.60
2022-09-27T01:25:55.754Z,1.38
2022-09-27T01:28:54.526Z,1.35
2022-09-27T01:31:27.449Z,1.38
2022-09-27T01:36:38.197Z,2.15
2022-09-27T01:39:14.271Z,1.40
2022-09-27T01:42:12.665Z,1.70
2022-09-27T01:44:47.879Z,1.80
2022-09-27T01:47:19.113Z,1.75
2022-09-27T01:49:52.196Z,1.60
2022-09-27T01:54:52.943Z,1.70
2022-09-27T01:57:38.724Z,1.48
2022-09-27T02:00:11.333Z,1.70
2022-09-27T02:03:00.461Z,1.40
2022-09-27T02:05:33.621Z,1.95
2022-09-27T02:08:05.365Z,1.38
2022-09-27T02:10:39.499Z,2.03
2022-09-27T02:13:27.663Z,1.48
2022-09-27T02:16:08.759Z,1.60
2022-09-27T02:18:53.574Z,1.58
2022-09-27T02:21:25.444Z,1.48
2022-09-27T02:24:00.869Z,1.52
2022-09-27T02:26:41.789Z,1.38
2022-09-27T02:29:20.351Z,1.65
2022-09-27T02:31:47.277Z,1.65
2022-09-27T02:34:22.436Z,2.00
2022-09-27T02:36:50.449Z,1.83
2022-09-27T02:39:18.494Z,1.88
2022-09-27T02:41:45.397Z,1.70
2022-09-27T02:44:15.020Z,1.80
2022-09-27T02:47:06.921Z,2.28
2022-09-27T02:49:54.463Z,1.92
2022-09-27T02:52:42.420Z,2.72
2022-09-27T02:55:30.882Z,2.10
2022-09-27T02:58:12.184Z,1.90
2022-09-27T03:01:33.111Z,1.75
2022-09-27T03:04:15.448Z,1.88
2022-09-27T03:06:46.011Z,2.25
2022-09-27T03:09:24.059Z,1.55
2022-09-27T03:11:51.479Z,1.65
2022-09-27T03:14:18.280Z,1.50
2022-09-27T03:16:45.102Z,1.75
2022-09-27T03:19:11.884Z,1.70
2022-09-27T03:21:39.269Z,1.50
2022-09-27T03:24:06.241Z,1.20
2022-09-27T03:26:33.088Z,1.80
2022-09-27T03:28:59.931Z,1.13
2022-09-27T03:31:26.849Z,1.10
2022-09-27T03:33:53.817Z,0.93
2022-09-27T03:36:20.595Z,1.02
2022-09-27T03:38:47.375Z,0.70
2022-09-27T03:41:14.182Z,0.80
2022-09-27T03:43:41.190Z,0.73
2022-09-27T03:46:08.027Z,0.85
2022-09-27T03:48:34.908Z,1.00
2022-09-27T03:51:01.791Z,0.80
2022-09-27T03:53:28.582Z,0.90
2022-09-27T03:55:55.696Z,0.90
2022-09-27T03:58:22.482Z,0.80
2022-09-27T04:00:49.606Z,0.90
2022-09-27T04:03:17.639Z,0.73
2022-09-27T04:05:44.436Z,0.90
2022-09-27T04:08:11.941Z,0.93
2022-09-27T04:10:39.061Z,0.75
2022-09-27T04:13:06.148Z,1.27
2022-09-27T04:15:33.058Z,1.00
2022-09-27T04:17:59.933Z,1.20
2022-09-27T04:20:26.782Z,1.02
2022-09-27T04:22:53.565Z,1.20
2022-09-27T04:25:20.392Z,0.98
2022-09-27T04:27:48.349Z,0.82
2022-09-27T04:30:15.924Z,1.02
2022-09-27T04:32:44.353Z,1.10
2022-09-27T04:35:33.498Z,0.93
2022-09-27T04:38:00.659Z,1.00
2022-09-27T04:40:27.655Z,1.20
2022-09-27T04:42:55.400Z,0.90
2022-09-27T04:45:22.302Z,1.10
2022-09-27T04:47:50.737Z,1.02
2022-09-27T04:50:18.562Z,0.90
2022-09-27T04:52:49.637Z,1.02
2022-09-27T04:55:16.486Z,1.00
2022-09-27T04:57:43.302Z,1.23
2022-09-27T05:00:10.597Z,1.13
2022-09-27T05:02:37.471Z,1.10
2022-09-27T05:05:04.549Z,1.38
2022-09-27T05:07:33.546Z,1.10
2022-09-27T05:10:00.616Z,1.50
2022-09-27T05:12:27.398Z,1.20
2022-09-27T05:14:54.644Z,1.42
2022-09-27T05:17:22.395Z,1.40
2022-09-27T05:19:49.860Z,1.30
2022-09-27T05:22:17.011Z,1.38
2022-09-27T05:24:43.919Z,1.80
2022-09-27T05:27:14.566Z,2.03
2022-09-27T05:29:42.093Z,1.35
2022-09-27T05:32:08.917Z,1.95
2022-09-27T05:34:35.747Z,1.85
2022-09-27T05:37:02.583Z,2.15
2022-09-27T05:39:29.613Z,1.55
2022-09-27T05:41:57.550Z,1.52
2022-09-27T05:44:26.010Z,1.88
2022-09-27T05:46:52.997Z,1.55
2022-09-27T05:49:20.703Z,1.58
2022-09-27T05:51:47.708Z,1.48
2022-09-27T05:54:14.679Z,1.70
2022-09-27T05:56:41.599Z,1.58
2022-09-27T05:59:08.500Z,1.65
2022-09-27T06:01:35.761Z,1.77
2022-09-27T06:04:04.806Z,1.55
2022-09-27T06:06:34.258Z,1.60
2022-09-27T06:09:01.632Z,1.40
2022-09-27T06:11:28.854Z,1.60
2022-09-27T06:13:58.833Z,1.83
2022-09-27T06:16:25.775Z,1.70
2022-09-27T06:18:52.587Z,1.58
2022-09-27T06:21:19.634Z,2.05
2022-09-27T06:23:50.634Z,1.70
2022-09-27T06:26:22.031Z,2.33
2022-09-27T06:28:51.210Z,2.15
2022-09-27T06:31:18.085Z,1.90
2022-09-27T06:33:46.035Z,2.40
2022-09-27T06:36:13.343Z,1.70
2022-09-27T06:38:40.281Z,1.38
2022-09-27T06:41:09.280Z,2.00
2022-09-27T06:43:37.082Z,2.28
2022-09-27T06:46:04.764Z,1.45
2022-09-27T06:48:37.578Z,1.38
2022-09-27T06:51:04.444Z,1.48
2022-09-27T06:53:31.541Z,1.20
2022-09-27T06:56:00.453Z,1.45
2022-09-27T06:58:47.236Z,1.60
2022-09-27T07:01:14.788Z,1.83
2022-09-27T07:03:44.521Z,1.23
2022-09-27T07:06:23.837Z,1.38
2022-09-27T07:08:52.368Z,1.58
2022-09-27T07:11:19.818Z,1.35
2022-09-27T07:13:46.638Z,1.20
2022-09-27T07:16:14.321Z,1.63
2022-09-27T07:18:42.250Z,1.02
2022-09-27T07:21:09.342Z,0.98
2022-09-27T07:23:37.488Z,0.90
2022-09-27T07:26:06.951Z,1.20
2022-09-27T07:28:34.574Z,1.00
2022-09-27T07:31:02.749Z,1.10
2022-09-27T07:33:31.352Z,1.08
2022-09-27T07:35:58.197Z,0.90
2022-09-27T07:38:25.019Z,1.10
2022-09-27T07:40:52.080Z,1.05
2022-09-27T07:43:19.671Z,1.10
2022-09-27T07:45:47.008Z,0.95
2022-09-27T07:48:16.514Z,0.70
2022-09-27T07:50:43.482Z,1.10
2022-09-27T07:53:13.357Z,1.13
2022-09-27T07:55:41.081Z,1.00
2022-09-27T07:58:10.561Z,1.10
2022-09-27T08:00:38.334Z,1.08
2022-09-27T08:03:10.948Z,0.68
2022-09-27T08:05:38.002Z,1.13
2022-09-27T08:08:05.020Z,0.98
2022-09-27T08:10:33.524Z,0.90
2022-09-27T08:13:04.651Z,0.68
2022-09-27T08:15:32.536Z,0.80
2022-09-27T08:17:59.523Z,1.35
2022-09-27T08:20:26.368Z,0.65
2022-09-27T08:22:53.268Z,0.80
2022-09-27T08:25:22.530Z,1.05
2022-09-27T08:27:57.167Z,0.50
2022-09-27T08:30:25.070Z,0.65
2022-09-27T08:32:59.443Z,0.60
2022-09-27T08:35:28.264Z,0.60
2022-09-27T08:37:56.714Z,0.50
2022-09-27T08:40:27.685Z,0.40
2022-09-27T08:43:11.804Z,0.60
2022-09-27T08:45:49.000Z,0.52
2022-09-27T08:48:17.808Z,0.70
2022-09-27T08:50:46.775Z,0.50
2022-09-27T08:53:30.682Z,0.45
2022-09-27T08:55:58.958Z,0.47
2022-09-27T08:58:41.086Z,0.60
2022-09-27T09:01:14.733Z,0.70
2022-09-27T09:03:50.023Z,0.80
2022-09-27T09:06:32.490Z,0.70
2022-09-27T09:09:30.403Z,0.50
2022-09-27T09:12:29.154Z,0.65
2022-09-27T09:15:55.963Z,0.60
2022-09-27T09:18:22.767Z,0.60
2022-09-27T09:21:14.395Z,1.30
2022-09-27T09:24:03.024Z,1.35
2022-09-27T09:26:57.344Z,1.08
2022-09-27T09:29:50.941Z,1.40
2022-09-27T09:32:55.103Z,1.15
2022-09-27T09:35:34.653Z,1.35
2022-09-27T09:38:12.845Z,1.20
2022-09-27T09:40:46.104Z,1.38
2022-09-27T09:43:26.249Z,1.00
2022-09-27T09:46:03.173Z,0.90
2022-09-27T09:48:56.309Z,1.20
2022-09-27T09:51:32.466Z,1.00
2022-09-27T09:54:02.811Z,1.70
2022-09-27T09:56:38.544Z,0.80
2022-09-27T09:59:15.477Z,1.10
2022-09-27T10:01:45.232Z,1.15
2022-09-27T10:04:20.760Z,0.98
2022-09-27T10:06:48.504Z,0.80
2022-09-27T10:09:17.801Z,0.98
2022-09-27T10:11:46.127Z,0.80
2022-09-27T10:14:16.012Z,0.60
2022-09-27T10:16:48.139Z,1.27
2022-09-27T10:19:20.697Z,0.50
2022-09-27T10:21:51.038Z,0.75
2022-09-27T10:24:19.647Z,0.63
2022-09-27T10:26:49.539Z,0.60
2022-09-27T10:29:31.592Z,0.80
2022-09-27T10:32:04.642Z,0.77
2022-09-27T10:34:41.291Z,0.43
2022-09-27T10:37:11.804Z,0.85
2022-09-27T10:39:41.470Z,0.75
2022-09-27T10:42:33.826Z,0.73
2022-09-27T10:45:27.510Z,0.82
2022-09-27T10:47:54.473Z,0.65
2022-09-27T10:50:49.531Z,0.65
2022-09-27T10:53:20.433Z,0.80
2022-09-27T10:55:50.145Z,0.75
2022-09-27T10:58:37.901Z,0.70
2022-09-27T11:01:08.447Z,0.60
2022-09-27T11:03:47.927Z,0.75
2022-09-27T11:06:33.333Z,0.70
2022-09-27T11:09:16.814Z,0.90
2022-09-27T11:11:45.330Z,0.70
2022-09-27T11:14:20.178Z,0.80
2022-09-27T11:17:08.757Z,0.73
2022-09-27T11:19:44.179Z,0.70
2022-09-27T11:22:58.750Z,0.88
2022-09-27T11:25:44.339Z,0.73
2022-09-27T11:28:36.580Z,1.10
2022-09-27T11:31:22.262Z,1.40
2022-09-27T11:33:52.004Z,1.10
2022-09-27T11:36:54.438Z,1.23
2022-09-27T11:39:33.249Z,1.10
2022-09-27T11:42:27.734Z,0.90
2022-09-27T11:48:14.275Z,0.80
2022-09-27T11:50:44.167Z,0.70
2022-09-27T11:53:32.468Z,0.80
2022-09-27T11:56:23.403Z,1.00
2022-09-27T11:59:28.528Z,1.48
2022-09-27T12:16:57.831Z,1.48
2022-09-27T12:19:32.673Z,1.25
2022-09-27T12:22:04.697Z,1.15
2022-09-27T12:24:34.488Z,1.20
2022-09-27T12:27:10.441Z,1.42
2022-09-27T12:29:41.942Z,1.05
2022-09-27T12:35:07.181Z,1.02
2022-09-27T12:37:37.255Z,2.67
2022-09-27T12:40:15.861Z,1.02
2022-09-27T12:42:49.236Z,1.10
2022-09-27T12:45:21.515Z,1.02
2022-09-27T12:48:23.151Z,1.10
2022-09-27T12:51:03.875Z,1.10
2022-09-27T12:53:44.186Z,1.20
2022-09-27T12:56:14.039Z,0.85
2022-09-27T12:58:55.101Z,1.05
2022-09-27T13:01:52.371Z,2.20
2022-09-27T13:04:45.455Z,1.05
2022-09-27T13:07:24.201Z,1.10
2022-09-27T13:10:01.319Z,1.10
2022-09-27T13:12:30.324Z,1.85
2022-09-27T13:15:07.689Z,0.70
2022-09-27T13:17:37.638Z,4.18
2022-09-27T13:20:35.463Z,2.63
2022-09-27T13:23:05.511Z,1.35
2022-09-27T13:25:55.982Z,1.10
2022-09-27T13:28:29.349Z,1.60
2022-09-27T13:30:57.625Z,1.85
2022-09-27T13:33:49.334Z,1.25
2022-09-27T13:36:24.977Z,1.58
2022-09-27T13:39:11.570Z,2.10
2022-09-27T13:41:41.263Z,2.67
2022-09-27T13:44:26.699Z,1.92
2022-09-27T13:46:56.298Z,1.65
2022-09-27T13:49:29.464Z,1.42
2022-09-27T13:52:03.449Z,1.30
2022-09-27T13:54:56.718Z,1.63
2022-09-27T13:58:03.361Z,1.73
2022-09-27T14:00:41.889Z,1.27
2022-09-27T14:03:11.732Z,1.38
2022-09-27T14:05:51.720Z,0.90
2022-09-27T14:08:43.887Z,0.60
2022-09-27T14:11:14.132Z,0.70
2022-09-27T14:13:43.114Z,0.90
2022-09-27T14:16:15.322Z,1.15
2022-09-27T14:18:57.664Z,0.70
2022-09-27T14:21:40.572Z,0.77
2022-09-27T14:24:43.615Z,0.93
2022-09-27T14:27:25.873Z,1.00
2022-09-27T14:29:57.011Z,0.83
2022-09-27T14:32:34.624Z,0.73
2022-09-27T14:35:29.378Z,0.60
2022-09-27T14:37:56.284Z,0.60
2022-09-27T14:40:23.412Z,0.60
2022-09-27T14:42:54.838Z,0.60
2022-09-27T14:45:36.620Z,0.70
2022-09-27T14:48:27.933Z,0.70
2022-09-27T14:51:06.160Z,0.73
2022-09-27T14:53:37.236Z,1.02
2022-09-27T14:56:07.145Z,0.88
2022-09-27T14:58:47.142Z,0.52
2022-09-27T15:01:20.329Z,1.30
2022-09-27T15:03:51.239Z,1.00
2022-09-27T15:06:19.221Z,0.80
2022-09-27T15:08:49.661Z,0.75
2022-09-27T15:11:19.395Z,0.95
2022-09-27T15:13:51.274Z,1.20
2022-09-27T15:16:20.923Z,1.38
2022-09-27T15:18:50.497Z,1.30
2022-09-27T15:21:35.467Z,1.20
2022-09-27T15:24:03.433Z,2.30
2022-09-27T15:26:45.995Z,1.33
2022-09-27T15:29:21.140Z,1.63
2022-09-27T15:32:05.597Z,1.70
2022-09-27T15:34:34.430Z,1.60
2022-09-27T15:37:06.603Z,1.15
2022-09-27T15:39:34.683Z,0.90
2022-09-27T15:42:13.376Z,0.88
2022-09-27T15:44:43.033Z,1.05
2022-09-27T15:47:32.053Z,1.27
2022-09-27T15:49:59.463Z,1.00
2022-09-27T15:52:43.269Z,0.73
2022-09-27T15:55:14.475Z,0.98
2022-09-27T15:57:42.192Z,1.13
2022-09-27T16:00:15.012Z,0.90
2022-09-27T16:02:41.778Z,1.23
2022-09-27T16:05:08.683Z,1.25
2022-09-27T16:07:35.867Z,1.30
2022-09-27T16:10:05.830Z,1.65
2022-09-27T16:12:32.633Z,1.45
2022-09-27T16:14:59.420Z,1.45
2022-09-27T16:17:26.174Z,1.38
2022-09-27T16:19:52.910Z,1.50
2022-09-27T16:22:19.677Z,1.23
2022-09-27T16:24:49.812Z,1.40
2022-09-27T16:27:27.533Z,1.58
2022-09-27T16:29:54.734Z,1.83
2022-09-27T16:32:21.631Z,1.88
2022-09-27T16:34:48.476Z,1.60
2022-09-27T16:37:15.404Z,1.58
2022-09-27T16:39:42.127Z,1.50
2022-09-27T16:42:10.048Z,1.60
2022-09-27T16:44:36.971Z,1.45
2022-09-27T16:47:04.314Z,2.20
2022-09-27T16:49:50.098Z,2.20
2022-09-27T16:52:16.878Z,2.33
2022-09-27T16:54:43.616Z,1.88
2022-09-27T16:57:10.520Z,2.20
2022-09-27T16:59:37.507Z,2.25
2022-09-27T17:02:05.458Z,2.08
2022-09-27T17:04:32.421Z,2.20
2022-09-27T17:06:59.348Z,1.90
2022-09-27T17:09:26.094Z,1.75
2022-09-27T17:11:52.896Z,2.38
2022-09-27T17:14:19.759Z,1.80
2022-09-27T17:16:47.305Z,1.95
2022-09-27T17:19:15.568Z,1.80
2022-09-27T17:21:43.543Z,1.77
2022-09-27T17:24:10.604Z,2.05
2022-09-27T17:26:38.313Z,2.40
2022-09-27T17:29:06.062Z,2.33
2022-09-27T17:31:34.831Z,2.30
2022-09-27T17:34:02.590Z,2.20
2022-09-27T17:36:32.841Z,2.63
2022-09-27T17:38:59.683Z,2.78
2022-09-27T17:41:28.346Z,3.15
2022-09-27T17:43:57.908Z,2.95
2022-09-27T17:46:33.930Z,2.75
2022-09-27T17:49:19.574Z,2.70
2022-09-27T17:51:48.737Z,2.00
2022-09-27T17:54:16.852Z,2.17
2022-09-27T17:56:44.463Z,3.58
2022-09-27T17:59:12.617Z,2.95
2022-09-27T18:01:40.110Z,2.25
2022-09-27T18:04:09.806Z,2.53
2022-09-27T18:06:41.950Z,2.47
2022-09-27T18:09:10.989Z,1.90
2022-09-27T18:11:38.907Z,2.28
2022-09-27T18:14:06.438Z,2.63
2022-09-27T18:16:36.973Z,2.47
2022-09-27T18:19:07.933Z,2.70
2022-09-27T18:21:35.469Z,2.42
2022-09-27T18:24:06.387Z,2.40
2022-09-27T18:26:36.737Z,3.30
2022-09-27T18:31:32.738Z,2.92
2022-09-27T18:33:59.964Z,2.53
2022-09-27T18:36:27.955Z,3.05
2022-09-27T18:38:57.659Z,2.92
2022-09-27T18:41:26.192Z,2.85
2022-09-27T18:44:01.879Z,3.30
2022-09-27T18:46:35.481Z,2.00
2022-09-27T18:49:09.418Z,3.00
2022-09-27T18:54:12.962Z,2.70
2022-09-27T18:56:41.059Z,2.72
2022-09-27T18:59:09.241Z,3.00
2022-09-27T19:01:41.734Z,3.00
2022-09-27T19:04:09.762Z,3.25
2022-09-27T19:06:38.256Z,3.00
2022-09-27T19:09:06.787Z,3.00
2022-09-27T19:11:34.265Z,2.58
2022-09-27T19:14:01.950Z,2.70
2022-09-27T19:16:29.866Z,2.97
2022-09-27T19:18:57.276Z,2.50
2022-09-27T19:21:26.914Z,2.53
2022-09-27T19:23:54.648Z,2.55
2022-09-27T19:26:23.739Z,3.42
2022-09-27T19:28:51.492Z,3.42
2022-09-27T19:31:26.432Z,3.17
2022-09-27T19:33:59.074Z,3.58
2022-09-27T19:36:27.645Z,3.85
2022-09-27T19:38:56.382Z,3.45
2022-09-27T19:41:23.279Z,4.60
2022-09-27T19:43:54.168Z,4.47
2022-09-27T19:46:22.810Z,3.75
2022-09-27T19:48:50.964Z,4.15
2022-09-27T19:51:24.202Z,3.95
2022-09-27T19:53:52.375Z,4.45
2022-09-27T19:56:20.037Z,4.32
2022-09-27T19:58:47.174Z,4.97
2022-09-27T20:01:24.966Z,4.35
2022-09-27T20:03:53.488Z,4.32
2022-09-27T20:06:21.632Z,3.63
2022-09-27T20:08:48.774Z,4.15
2022-09-27T20:11:21.572Z,4.03
2022-09-27T20:13:49.810Z,4.47
2022-09-27T20:16:19.957Z,4.40
2022-09-27T20:18:49.004Z,4.65
2022-09-27T20:21:17.765Z,4.70
2022-09-27T20:23:47.970Z,4.00
2022-09-27T20:26:16.892Z,3.58
2022-09-27T20:28:46.446Z,3.00
2022-09-27T20:31:15.061Z,2.72
2022-09-27T20:33:42.164Z,2.67
2022-09-27T20:36:12.644Z,2.28
2022-09-27T20:38:44.772Z,2.20
2022-09-27T20:41:14.199Z,2.47
2022-09-27T20:43:40.950Z,2.20
2022-09-27T20:46:11.138Z,2.00
2022-09-27T20:48:41.088Z,2.08
2022-09-27T20:51:08.427Z,1.60
2022-09-27T20:53:35.196Z,1.83
2022-09-27T20:56:04.966Z,1.60
2022-09-27T20:58:32.621Z,2.20
2022-09-27T21:01:06.740Z,1.60
2022-09-27T21:03:34.567Z,1.70
2022-09-27T21:06:01.476Z,1.67
2022-09-27T21:08:34.029Z,2.72
2022-09-27T21:11:09.521Z,1.80
2022-09-27T21:13:38.708Z,1.60
2022-09-27T21:16:08.276Z,1.52
2022-09-27T21:18:35.933Z,1.67
2022-09-27T21:21:10.669Z,1.33
2022-09-27T21:23:43.464Z,1.58
2022-09-27T21:26:13.865Z,1.63
2022-09-27T21:28:43.197Z,1.88
2022-09-27T21:31:18.863Z,1.75
2022-09-27T21:33:50.623Z,1.60
2022-09-27T21:36:17.390Z,1.40
2022-09-27T21:38:44.193Z,2.00
2022-09-27T21:41:14.676Z,1.90
2022-09-27T21:43:43.005Z,1.65
2022-09-27T21:46:16.161Z,1.90
2022-09-27T21:48:45.296Z,1.67
2022-09-27T21:51:20.997Z,1.85
2022-09-27T21:54:07.906Z,1.92
2022-09-27T21:56:37.561Z,1.70
2022-09-27T21:59:05.653Z,1.52
2022-09-27T22:01:34.083Z,1.33
2022-09-27T22:04:02.265Z,1.88
2022-09-27T22:06:32.155Z,2.00
2022-09-27T22:09:00.671Z,1.95
2022-09-27T22:11:33.631Z,2.53
2022-09-27T22:16:30.163Z,2.03
2022-09-27T22:18:57.889Z,2.30
2022-09-27T22:21:29.853Z,2.53
2022-09-27T22:23:58.530Z,2.83
2022-09-27T22:26:28.046Z,3.05
2022-09-27T22:28:54.952Z,2.38
2022-09-27T22:31:23.290Z,2.45
2022-09-27T22:33:59.853Z,3.03
2022-09-27T22:36:28.082Z,2.30
2022-09-27T22:38:55.727Z,2.00
2022-09-27T22:41:23.995Z,2.60
2022-09-27T22:43:53.502Z,2.50
2022-09-27T22:46:21.333Z,2.40
2022-09-27T22:48:49.740Z,2.33
2022-09-27T22:51:17.421Z,2.53
2022-09-27T22:53:44.386Z,2.33
2022-09-27T22:56:14.892Z,2.13
2022-09-27T22:58:44.876Z,2.10
2022-09-27T23:01:20.684Z,2.08
2022-09-27T23:03:49.210Z,2.40
2022-09-27T23:06:17.149Z,2.10
2022-09-27T23:08:44.345Z,2.10
2022-09-27T23:11:22.359Z,2.17
2022-09-27T23:13:50.562Z,2.22
2022-09-27T23:16:25.886Z,1.80
2022-09-27T23:18:57.048Z,2.10
2022-09-27T23:21:25.938Z,1.70
2022-09-27T23:23:55.103Z,1.30
2022-09-27T23:26:26.612Z,1.80
2022-09-27T23:29:01.224Z,1.65
2022-09-27T23:31:30.657Z,1.63
2022-09-27T23:33:59.197Z,1.80
2022-09-27T23:36:27.577Z,1.60
2022-09-27T23:38:57.732Z,1.88
2022-09-27T23:41:24.565Z,1.67
2022-09-27T23:43:51.564Z,2.35
2022-09-27T23:46:18.638Z,2.20
2022-09-27T23:48:46.123Z,2.35
2022-09-27T23:51:13.015Z,1.95
2022-09-27T23:53:40.681Z,1.60
2022-09-27T23:56:10.522Z,1.70
2022-09-27T23:58:39.952Z,1.55
